Flight Track Log - Related Links

Times and Time Zones

All times are in EDT time to prevent confusion due to time zone crossing. See the SKW5373 flight status page for this flight to view local times or setup timezone preferences in your user account.

Time Position Orientation Groundspeed Altitude Reporting Facility
EDT Latitude Longitude Course Direction KTS MPH feet Rate Location/Type
Sun 01:38:55 PM 33.9500 -118.4500 292° West 156 180 1,300  Level Southern California TRACON
Sun 01:39:49 PM 33.9500 -118.5000 270° West 199 229 2,500 1,421 Climbing Southern California TRACON
Sun 01:40:49 PM 33.9667 -118.5667 287° West 220 253 4,000 1,443 Climbing Southern California TRACON
Sun 01:41:08 PM 33.9778 -118.5933 297° West 218 251 4,400 1,481 Climbing Los Angeles Center
Sun 01:42:00 PM 34.0883 -118.8375 296° West  Level FlightAware Approximate
Sun 01:42:10 PM 34.0008 -118.6697 290° West 224 258 6,000  Level Los Angeles Center
Sun 01:43:00 PM 34.1271 -118.9474 292° West  Level FlightAware Approximate
Sun 01:43:12 PM 34.0256 -118.7475 291° West 247 284 6,000  Level Los Angeles Center
Sun 01:44:00 PM 34.1498 -119.0152 292° West  Level FlightAware Approximate
Sun 01:44:02 PM 34.0408 -118.8178 285° West 261 300 6,000  Level Los Angeles Center
Sun 01:45:15 PM 34.0747 -118.9211 292° West 263 303 6,000  Level Los Angeles Center
Sun 01:46:16 PM 34.1064 -118.9942 298° West 263 303 6,000  Level Los Angeles Center
Sun 01:47:16 PM 34.1394 -119.0744 296° West 262 302 6,000  Level Los Angeles Center
Sun 01:47:45 PM 34.1469 -119.0872 305° West 263 303 6,000  Level Los Angeles Center
Sun 01:48:47 PM 34.1858 -119.1992 293° West 259 298 6,000  Level Los Angeles Center
Sun 01:49:49 PM 34.2164 -119.2794 295° West 263 303 6,000  Level Los Angeles Center
Sun 01:50:57 PM 34.2508 -119.3686 295° West 262 302 6,000 -293 Level Los Angeles Center
Sun 01:51:52 PM 34.2811 -119.4447 296° West 264 304 5,400 -1,138 Descending Los Angeles Center
Sun 01:52:53 PM 34.3147 -119.5275 296° West 275 316 3,800 -1,426 Descending Los Angeles Center
Sun 01:53:54 PM 34.3450 -119.6142 293° West 273 314 2,500 -893 Descending Los Angeles Center
Sun 01:54:54 PM 34.3711 -119.6917 292° West 259 298 2,000 -500 Descending Los Angeles Center

Login

Don't have an account? Register now (free) for customized features, flight alerts, and more!